createdAt,value
2023-01-29T00:01:56.156Z,-3.21
2023-01-29T00:04:23.010Z,-3.14
2023-01-29T00:06:49.638Z,-3.14
2023-01-29T00:09:16.286Z,-3.14
2023-01-29T00:11:42.944Z,-3.15
2023-01-29T00:14:09.819Z,-3.14
2023-01-29T00:16:36.445Z,-3.10
2023-01-29T00:19:04.134Z,-3.22
2023-01-29T00:21:32.195Z,-3.10
2023-01-29T00:23:59.767Z,-3.22
2023-01-29T00:26:27.247Z,-3.11
2023-01-29T00:28:53.909Z,-3.12
2023-01-29T00:31:23.028Z,-3.13
2023-01-29T00:33:50.531Z,-3.26
2023-01-29T00:36:18.998Z,-3.18
2023-01-29T00:38:54.492Z,-3.16
2023-01-29T00:41:40.800Z,-3.20
2023-01-29T00:44:26.287Z,-3.20
2023-01-29T00:46:52.892Z,-3.24
2023-01-29T00:49:19.440Z,-3.31
2023-01-29T00:52:05.978Z,-3.34
2023-01-29T00:54:33.251Z,-3.21
2023-01-29T00:57:00.256Z,-3.21
2023-01-29T00:59:27.031Z,-3.24
2023-01-29T01:02:11.797Z,-3.34
2023-01-29T01:04:38.477Z,-3.35
2023-01-29T01:07:05.227Z,-3.26
2023-01-29T01:09:50.072Z,-3.40
2023-01-29T01:12:16.559Z,-3.25
2023-01-29T01:14:43.330Z,-3.26
2023-01-29T01:17:09.842Z,-3.25
2023-01-29T01:19:36.509Z,-3.24
2023-01-29T01:22:04.946Z,-3.29
2023-01-29T01:24:32.154Z,-3.26
2023-01-29T01:26:58.822Z,-3.20
2023-01-29T01:29:25.343Z,-3.27
2023-01-29T01:31:53.844Z,-3.18
2023-01-29T01:34:22.066Z,-3.25
2023-01-29T01:36:48.926Z,-3.38
2023-01-29T01:39:15.670Z,-3.40
2023-01-29T01:41:42.180Z,-3.37
2023-01-29T01:44:47.386Z,-3.32
2023-01-29T01:47:15.620Z,-3.33
2023-01-29T01:49:43.412Z,-3.35
2023-01-29T01:52:11.919Z,-3.36
2023-01-29T01:54:38.489Z,-3.36
2023-01-29T01:57:11.604Z,-3.36
2023-01-29T01:59:40.393Z,-3.38
2023-01-29T02:02:26.426Z,-3.39
2023-01-29T02:05:11.753Z,-3.43
2023-01-29T02:08:02.776Z,-3.43
2023-01-29T02:10:31.854Z,-3.46
2023-01-29T02:12:58.399Z,-3.50
2023-01-29T02:15:24.916Z,-3.42
2023-01-29T02:17:51.459Z,-3.46
2023-01-29T02:20:26.605Z,-3.48
2023-01-29T02:23:11.152Z,-3.45
2023-01-29T02:26:15.389Z,-3.46
2023-01-29T02:28:53.695Z,-3.49
2023-01-29T02:31:38.208Z,-3.48
2023-01-29T02:35:22.250Z,-3.47
2023-01-29T02:38:23.751Z,-3.46
2023-01-29T02:41:03.805Z,-3.51
2023-01-29T02:43:54.931Z,-3.42
2023-01-29T02:46:28.006Z,-3.47
2023-01-29T02:49:06.748Z,-3.40
2023-01-29T02:51:59.689Z,-3.39
2023-01-29T02:54:47.659Z,-3.45
2023-01-29T02:57:29.065Z,-3.41
2023-01-29T03:00:27.651Z,-3.39
2023-01-29T03:03:07.457Z,-3.41
2023-01-29T03:05:45.706Z,-3.47
2023-01-29T03:08:18.420Z,-3.36
2023-01-29T03:10:57.638Z,-3.40
2023-01-29T03:13:33.249Z,-3.39
2023-01-29T03:16:12.140Z,-3.42
2023-01-29T03:18:48.685Z,-3.43
2023-01-29T03:21:43.213Z,-3.49
2023-01-29T03:24:31.918Z,-3.56
2023-01-29T03:27:23.159Z,-3.55
2023-01-29T03:30:11.619Z,-3.49
2023-01-29T03:32:38.660Z,-3.50
2023-01-29T03:35:08.356Z,-3.58
2023-01-29T03:37:45.453Z,-3.64
2023-01-29T03:40:13.383Z,-3.61
2023-01-29T03:42:49.245Z,-3.62
2023-01-29T03:45:23.861Z,-3.65
2023-01-29T03:48:13.161Z,-3.64
2023-01-29T03:51:08.956Z,-3.66
2023-01-29T03:53:58.537Z,-3.70
2023-01-29T03:56:33.904Z,-3.71
2023-01-29T03:59:18.518Z,-3.75
2023-01-29T04:02:27.917Z,-3.78
2023-01-29T04:05:02.720Z,-3.76
2023-01-29T04:07:33.345Z,-3.77
2023-01-29T04:10:09.789Z,-3.79
2023-01-29T04:12:43.126Z,-3.84
2023-01-29T04:15:15.373Z,-3.88
2023-01-29T04:17:47.569Z,-3.86
2023-01-29T04:20:14.209Z,-3.89
2023-01-29T04:22:45.166Z,-3.88
2023-01-29T04:25:16.219Z,-3.91
2023-01-29T04:28:01.782Z,-3.93
2023-01-29T04:30:43.603Z,-3.94
2023-01-29T04:33:57.812Z,-3.98
2023-01-29T04:36:45.453Z,-4.00
2023-01-29T04:39:19.111Z,-3.98
2023-01-29T04:42:27.213Z,-3.98
2023-01-29T04:45:24.637Z,-3.98
2023-01-29T04:48:01.115Z,-4.09
2023-01-29T04:50:49.320Z,-3.99
2023-01-29T04:53:23.083Z,-3.97
2023-01-29T04:56:02.606Z,-4.05
2023-01-29T04:58:33.312Z,-3.99
2023-01-29T05:01:02.943Z,-4.00
2023-01-29T05:03:31.303Z,-4.17
2023-01-29T05:06:00.672Z,-4.00
2023-01-29T05:08:29.857Z,-4.12
2023-01-29T05:10:58.869Z,-4.06
2023-01-29T05:13:28.161Z,-4.06
2023-01-29T05:16:02.098Z,-4.05
2023-01-29T05:18:30.514Z,-4.08
2023-01-29T05:20:59.908Z,-4.09
2023-01-29T05:23:26.463Z,-4.12
2023-01-29T05:25:53.151Z,-4.27
2023-01-29T05:28:19.713Z,-4.08
2023-01-29T05:30:49.029Z,-4.04
2023-01-29T05:33:30.374Z,-3.99
2023-01-29T05:35:59.594Z,-3.94
2023-01-29T05:38:26.266Z,-3.94
2023-01-29T05:40:52.748Z,-3.95
2023-01-29T05:43:24.151Z,-3.96
2023-01-29T05:45:55.597Z,-4.11
2023-01-29T05:48:22.511Z,-3.96
2023-01-29T05:50:49.176Z,-3.99
2023-01-29T05:53:15.645Z,-3.99
2023-01-29T05:55:46.507Z,-3.94
2023-01-29T05:58:12.998Z,-3.95
2023-01-29T06:00:40.169Z,-4.05
2023-01-29T06:03:06.961Z,-3.96
2023-01-29T06:05:33.544Z,-3.97
2023-01-29T06:08:00.008Z,-3.97
2023-01-29T06:10:26.610Z,-3.97
2023-01-29T06:12:53.158Z,-3.98
2023-01-29T06:15:19.767Z,-3.97
2023-01-29T06:17:46.321Z,-3.94
2023-01-29T06:20:13.113Z,-3.90
2023-01-29T06:22:39.634Z,-3.92
2023-01-29T06:25:06.843Z,-3.92
2023-01-29T06:27:33.388Z,-3.89
2023-01-29T06:29:59.799Z,-3.88
2023-01-29T06:32:26.374Z,-3.88
2023-01-29T06:34:53.227Z,-3.88
2023-01-29T06:37:19.719Z,-3.93
2023-01-29T06:39:46.162Z,-3.89
2023-01-29T06:42:12.679Z,-3.84
2023-01-29T06:44:39.163Z,-3.88
2023-01-29T06:47:05.646Z,-3.81
2023-01-29T06:49:32.543Z,-3.80
2023-01-29T06:51:58.979Z,-3.72
2023-01-29T06:54:25.494Z,-3.72
2023-01-29T06:56:52.326Z,-3.66
2023-01-29T06:59:18.798Z,-3.70
2023-01-29T07:01:45.400Z,-3.69
2023-01-29T07:04:11.956Z,-3.64
2023-01-29T07:06:38.471Z,-3.62
2023-01-29T07:09:05.244Z,-3.64
2023-01-29T07:11:34.039Z,-3.56
2023-01-29T07:14:00.644Z,-3.54
2023-01-29T07:16:27.273Z,-3.51
2023-01-29T07:18:53.911Z,-3.45
2023-01-29T07:21:20.498Z,-3.49
2023-01-29T07:23:47.310Z,-3.61
2023-01-29T07:26:13.865Z,-3.37
2023-01-29T07:28:40.902Z,-3.31
2023-01-29T07:31:08.424Z,-3.30
2023-01-29T07:33:35.051Z,-3.22
2023-01-29T07:36:07.191Z,-3.19
2023-01-29T07:38:33.744Z,-3.18
2023-01-29T07:41:01.358Z,-3.23
2023-01-29T07:43:30.221Z,-3.14
2023-01-29T07:45:56.937Z,-3.12
2023-01-29T07:48:23.674Z,-3.09
2023-01-29T07:50:56.634Z,-3.07
2023-01-29T07:53:23.755Z,-3.02
2023-01-29T07:55:50.640Z,-3.02
2023-01-29T07:58:17.263Z,-2.98
2023-01-29T08:00:44.291Z,-2.96
2023-01-29T08:03:16.833Z,-2.94
2023-01-29T08:05:46.752Z,-2.87
2023-01-29T08:08:13.638Z,-2.90
2023-01-29T08:10:40.763Z,-2.85
2023-01-29T08:13:07.427Z,-2.83
2023-01-29T08:15:37.184Z,-2.93
2023-01-29T08:18:05.391Z,-2.84
2023-01-29T08:20:31.953Z,-2.76
2023-01-29T08:23:03.504Z,-2.80
2023-01-29T08:25:30.277Z,-2.77
2023-01-29T08:28:00.718Z,-2.72
2023-01-29T08:30:33.319Z,-2.70
2023-01-29T08:32:59.894Z,-2.66
2023-01-29T08:35:26.599Z,-2.64
2023-01-29T08:37:59.436Z,-2.62
2023-01-29T08:40:27.624Z,-2.62
2023-01-29T08:43:02.739Z,-2.69
2023-01-29T08:45:31.203Z,-2.57
2023-01-29T08:47:57.819Z,-2.57
2023-01-29T08:50:24.537Z,-2.58
2023-01-29T08:52:51.298Z,-2.56
2023-01-29T08:55:18.207Z,-2.62
2023-01-29T08:57:45.006Z,-2.50
2023-01-29T09:00:12.148Z,-2.50
2023-01-29T09:02:38.662Z,-2.48
2023-01-29T09:05:05.961Z,-2.49
2023-01-29T09:07:32.520Z,-2.43
2023-01-29T09:09:59.067Z,-2.38
2023-01-29T09:12:25.709Z,-2.37
2023-01-29T09:14:52.250Z,-2.24
2023-01-29T09:17:18.789Z,-2.19
2023-01-29T09:19:45.420Z,-2.14
2023-01-29T09:22:12.036Z,-2.17
2023-01-29T09:24:38.879Z,-2.18
2023-01-29T09:27:06.205Z,-2.24
2023-01-29T09:29:35.682Z,-2.22
2023-01-29T09:32:03.677Z,-2.26
2023-01-29T09:34:30.196Z,-2.15
2023-01-29T09:36:56.766Z,-2.07
2023-01-29T09:39:23.315Z,-2.02
2023-01-29T09:41:58.485Z,-1.96
2023-01-29T09:44:47.092Z,-1.91
2023-01-29T09:47:17.946Z,-1.85
2023-01-29T09:49:53.621Z,-1.86
2023-01-29T09:52:31.612Z,-1.76
2023-01-29T09:55:04.430Z,-1.72
2023-01-29T09:57:41.168Z,-1.69
2023-01-29T10:00:20.492Z,-1.51
2023-01-29T10:03:15.246Z,-1.30
2023-01-29T10:05:53.733Z,-1.29
2023-01-29T10:08:39.127Z,-1.13
2023-01-29T10:11:39.926Z,-1.13
2023-01-29T10:14:37.866Z,-1.02
2023-01-29T10:17:10.161Z,-0.95
2023-01-29T10:20:01.295Z,-1.00
2023-01-29T10:22:33.684Z,-0.90
2023-01-29T10:25:18.417Z,-0.90
2023-01-29T10:27:53.023Z,-0.95
2023-01-29T10:30:28.819Z,-1.03
2023-01-29T10:32:59.188Z,-1.08
2023-01-29T10:35:50.831Z,-1.09
2023-01-29T10:38:38.464Z,-0.96
2023-01-29T10:41:11.092Z,-1.00
2023-01-29T10:43:58.163Z,-1.21
2023-01-29T10:47:08.660Z,-1.14
2023-01-29T10:49:38.984Z,-1.02
2023-01-29T10:52:26.333Z,-1.06
2023-01-29T10:55:19.704Z,-1.02
2023-01-29T10:58:08.015Z,-0.92
2023-01-29T11:00:40.312Z,-1.12
2023-01-29T11:03:28.332Z,-0.81
2023-01-29T11:06:24.195Z,-0.81
2023-01-29T11:08:59.907Z,-0.77
2023-01-29T11:11:55.225Z,-0.73
2023-01-29T11:14:27.298Z,-0.64
2023-01-29T11:16:54.079Z,-0.53
2023-01-29T11:19:40.298Z,-0.60
2023-01-29T11:22:16.007Z,-0.53
2023-01-29T11:24:43.154Z,-0.57
2023-01-29T11:27:25.785Z,-0.47
2023-01-29T11:29:55.884Z,-0.42
2023-01-29T11:32:22.384Z,-0.45
2023-01-29T11:35:06.048Z,-0.40
2023-01-29T11:37:41.197Z,-0.38
2023-01-29T11:40:35.757Z,-0.33
2023-01-29T11:43:22.922Z,-0.29
2023-01-29T11:45:53.267Z,-0.21
2023-01-29T11:48:22.990Z,-0.21
2023-01-29T11:51:10.194Z,-0.12
2023-01-29T11:53:40.733Z,-0.08
2023-01-29T11:56:20.167Z,0.00
2023-01-29T11:58:49.114Z,0.06
2023-01-29T12:01:23.440Z,0.11
2023-01-29T12:03:53.908Z,0.09
2023-01-29T12:06:23.860Z,0.10
2023-01-29T12:08:59.614Z,0.09
2023-01-29T12:11:33.337Z,0.16
2023-01-29T12:14:02.400Z,0.16
2023-01-29T12:16:36.667Z,0.13
2023-01-29T12:19:16.502Z,0.13
2023-01-29T12:22:22.397Z,0.17
2023-01-29T12:25:20.626Z,0.20
2023-01-29T12:27:56.109Z,0.26
2023-01-29T12:30:29.329Z,0.26
2023-01-29T12:33:14.366Z,0.31
2023-01-29T12:35:50.119Z,0.37
2023-01-29T12:38:19.513Z,0.43
2023-01-29T12:40:55.217Z,0.48
2023-01-29T12:43:36.167Z,0.50
2023-01-29T12:46:03.254Z,0.68
2023-01-29T12:48:41.913Z,0.71
2023-01-29T12:51:18.972Z,0.76
2023-01-29T12:54:09.086Z,0.82
2023-01-29T12:56:48.014Z,0.86
2023-01-29T12:59:17.435Z,0.89
2023-01-29T13:01:58.091Z,0.87
2023-01-29T13:04:36.004Z,0.88
2023-01-29T13:07:25.952Z,0.91
2023-01-29T13:09:59.056Z,0.91
2023-01-29T13:12:25.868Z,0.92
2023-01-29T13:14:57.641Z,0.96
2023-01-29T13:17:36.416Z,0.97
2023-01-29T13:20:16.167Z,1.02
2023-01-29T13:22:44.685Z,1.06
2023-01-29T13:25:19.554Z,1.07
2023-01-29T13:27:47.804Z,1.16
2023-01-29T13:30:29.116Z,1.19
2023-01-29T13:33:09.126Z,1.25
2023-01-29T13:35:42.786Z,1.29
2023-01-29T13:38:33.371Z,1.33
2023-01-29T13:41:10.372Z,1.31
2023-01-29T13:43:40.279Z,1.37
2023-01-29T13:46:17.694Z,1.38
2023-01-29T13:48:48.427Z,1.45
2023-01-29T13:51:22.733Z,1.40
2023-01-29T13:54:18.176Z,1.45
2023-01-29T13:56:59.179Z,1.41
2023-01-29T13:59:51.949Z,1.41
2023-01-29T14:02:29.752Z,1.40
2023-01-29T14:05:31.485Z,1.43
2023-01-29T14:08:01.720Z,1.49
2023-01-29T14:10:34.168Z,1.49
2023-01-29T14:13:03.769Z,1.56
2023-01-29T14:15:33.605Z,1.55
2023-01-29T14:18:05.905Z,1.56
2023-01-29T14:21:05.972Z,1.61
2023-01-29T14:23:41.228Z,1.57
2023-01-29T14:26:34.415Z,1.56
2023-01-29T14:29:25.445Z,1.49
2023-01-29T14:32:00.598Z,1.48
2023-01-29T14:34:34.075Z,1.49
2023-01-29T14:37:29.754Z,1.44
2023-01-29T14:40:07.888Z,1.43
2023-01-29T14:42:44.049Z,1.44
2023-01-29T14:45:22.406Z,1.37
2023-01-29T14:47:48.838Z,1.33
2023-01-29T14:50:34.664Z,1.35
2023-01-29T14:53:34.182Z,1.35
2023-01-29T14:56:19.190Z,1.33
2023-01-29T14:58:52.441Z,1.29
2023-01-29T15:01:21.391Z,1.26
2023-01-29T15:03:53.835Z,1.29
2023-01-29T15:06:45.909Z,1.23
2023-01-29T15:09:15.203Z,1.21
2023-01-29T15:12:03.387Z,1.02
2023-01-29T15:14:41.981Z,1.21
2023-01-29T15:17:18.619Z,1.21
2023-01-29T15:19:50.506Z,1.22
2023-01-29T15:22:19.858Z,1.21
2023-01-29T15:25:01.568Z,1.23
2023-01-29T15:27:29.051Z,1.22
2023-01-29T15:30:02.018Z,1.24
2023-01-29T15:32:35.547Z,1.19
2023-01-29T15:35:08.502Z,1.23
2023-01-29T15:37:36.432Z,1.21
2023-01-29T15:40:06.916Z,1.13
2023-01-29T15:42:48.523Z,1.23
2023-01-29T15:45:35.068Z,1.19
2023-01-29T15:48:13.941Z,1.19
2023-01-29T15:50:42.271Z,1.22
2023-01-29T15:53:15.814Z,1.20
2023-01-29T15:55:43.349Z,1.24
2023-01-29T15:58:17.892Z,1.22
2023-01-29T16:00:53.071Z,1.23
2023-01-29T16:03:23.140Z,1.25
2023-01-29T16:05:51.651Z,1.26
2023-01-29T16:08:20.743Z,1.25
2023-01-29T16:10:52.615Z,1.26
2023-01-29T16:13:23.031Z,1.29
2023-01-29T16:16:01.489Z,1.26
2023-01-29T16:18:39.487Z,1.24
2023-01-29T16:21:24.505Z,1.24
2023-01-29T16:23:55.642Z,1.26
2023-01-29T16:26:33.090Z,1.24
2023-01-29T16:29:07.221Z,1.28
2023-01-29T16:31:35.580Z,1.23
2023-01-29T16:34:09.144Z,1.30
2023-01-29T16:36:36.240Z,1.27
2023-01-29T16:39:13.058Z,1.26
2023-01-29T16:41:39.756Z,1.16
2023-01-29T16:44:21.412Z,1.22
2023-01-29T16:46:51.131Z,1.21
2023-01-29T16:49:40.737Z,1.20
2023-01-29T16:52:28.295Z,1.19
2023-01-29T16:55:14.342Z,1.09
2023-01-29T16:57:47.665Z,1.18
2023-01-29T17:00:22.177Z,1.19
2023-01-29T17:02:52.516Z,1.12
2023-01-29T17:05:35.017Z,1.18
2023-01-29T17:08:02.590Z,1.09
2023-01-29T17:10:30.571Z,1.18
2023-01-29T17:12:59.063Z,1.19
2023-01-29T17:15:46.182Z,1.17
2023-01-29T17:18:18.804Z,1.20
2023-01-29T17:20:45.399Z,1.21
2023-01-29T17:23:12.027Z,1.21
2023-01-29T17:25:38.919Z,1.17
2023-01-29T17:28:05.982Z,1.19
2023-01-29T17:30:37.168Z,1.17
2023-01-29T17:33:30.077Z,1.23
2023-01-29T17:35:56.844Z,1.15
2023-01-29T17:38:26.477Z,1.23
2023-01-29T17:41:00.084Z,1.18
2023-01-29T17:43:26.626Z,1.12
2023-01-29T17:45:53.794Z,1.14
2023-01-29T17:48:25.117Z,1.18
2023-01-29T17:50:54.825Z,1.14
2023-01-29T17:53:24.847Z,1.18
2023-01-29T17:55:53.174Z,1.19
2023-01-29T17:58:19.666Z,1.20
2023-01-29T18:00:47.216Z,1.19
2023-01-29T18:03:14.117Z,1.12
2023-01-29T18:05:42.548Z,1.19
2023-01-29T18:08:22.316Z,1.19
2023-01-29T18:10:48.838Z,1.19
2023-01-29T18:13:15.397Z,1.15
2023-01-29T18:15:41.995Z,1.12
2023-01-29T18:18:14.129Z,1.17
2023-01-29T18:20:41.324Z,1.13
2023-01-29T18:23:08.541Z,1.18
2023-01-29T18:25:35.170Z,1.16
2023-01-29T18:28:02.713Z,1.20
2023-01-29T18:30:29.772Z,1.18
2023-01-29T18:32:57.568Z,1.19
2023-01-29T18:35:27.389Z,1.15
2023-01-29T18:38:03.410Z,1.22
2023-01-29T18:40:31.802Z,1.22
2023-01-29T18:43:00.908Z,1.21
2023-01-29T18:45:28.681Z,1.18
2023-01-29T18:47:56.009Z,1.25
2023-01-29T18:50:26.396Z,1.18
2023-01-29T18:52:54.380Z,1.13
2023-01-29T18:55:21.978Z,1.25
2023-01-29T18:58:26.691Z,1.24
2023-01-29T19:00:39.927Z,1.26
2023-01-29T19:03:06.509Z,1.31
2023-01-29T19:05:33.827Z,1.30
2023-01-29T19:08:00.408Z,1.28
2023-01-29T19:10:26.947Z,1.27
2023-01-29T19:12:53.445Z,1.28
2023-01-29T19:15:22.010Z,1.29
2023-01-29T19:17:51.934Z,1.27
2023-01-29T19:20:18.932Z,1.29
2023-01-29T19:22:45.546Z,1.32
2023-01-29T19:25:12.742Z,1.28
2023-01-29T19:27:39.650Z,1.30
2023-01-29T19:30:07.186Z,1.33
2023-01-29T19:32:34.594Z,1.34
2023-01-29T19:35:01.077Z,1.36
2023-01-29T19:37:30.577Z,1.38
2023-01-29T19:39:57.144Z,1.41
2023-01-29T19:42:23.876Z,1.43
2023-01-29T19:44:52.049Z,1.41
2023-01-29T19:47:18.990Z,1.44
2023-01-29T19:49:45.647Z,1.47
2023-01-29T19:52:41.423Z,1.41
2023-01-29T19:55:16.501Z,1.46
2023-01-29T19:57:43.225Z,1.47
2023-01-29T20:00:12.151Z,1.47
2023-01-29T20:02:38.789Z,1.39
2023-01-29T20:05:07.045Z,1.45
2023-01-29T20:07:35.958Z,1.48
2023-01-29T20:10:02.752Z,1.47
2023-01-29T20:12:29.958Z,1.52
2023-01-29T20:14:56.580Z,1.50
2023-01-29T20:17:23.117Z,1.52
2023-01-29T20:19:49.651Z,1.49
2023-01-29T20:22:16.158Z,1.55
2023-01-29T20:24:42.889Z,1.58
2023-01-29T20:27:10.838Z,1.58
2023-01-29T20:29:39.032Z,1.58
2023-01-29T20:32:08.731Z,1.58
2023-01-29T20:34:35.674Z,1.63
2023-01-29T20:37:02.202Z,1.56
2023-01-29T20:39:28.833Z,1.54
2023-01-29T20:41:57.268Z,1.64
2023-01-29T20:44:25.023Z,1.63
2023-01-29T20:46:51.753Z,1.64
2023-01-29T20:49:18.427Z,1.65
2023-01-29T20:51:45.739Z,1.71
2023-01-29T20:54:12.775Z,1.70
2023-01-29T20:56:45.889Z,1.75
2023-01-29T20:59:13.830Z,1.75
2023-01-29T21:01:41.309Z,1.79
2023-01-29T21:04:07.824Z,1.84
2023-01-29T21:06:34.396Z,1.84
2023-01-29T21:09:00.908Z,1.86
2023-01-29T21:11:28.559Z,1.87
2023-01-29T21:13:57.775Z,1.84
2023-01-29T21:16:26.217Z,1.91
2023-01-29T21:18:57.267Z,1.89
2023-01-29T21:21:24.117Z,1.93
2023-01-29T21:23:50.610Z,1.96
2023-01-29T21:26:17.141Z,1.98
2023-01-29T21:28:43.666Z,2.01
2023-01-29T21:31:14.565Z,2.04
2023-01-29T21:33:41.132Z,2.07
2023-01-29T21:36:10.129Z,2.07
2023-01-29T21:38:37.134Z,2.13
2023-01-29T21:41:05.907Z,2.16
2023-01-29T21:43:33.025Z,2.19
2023-01-29T21:46:05.044Z,2.16
2023-01-29T21:48:31.887Z,2.05
2023-01-29T21:50:58.406Z,2.05
2023-01-29T21:53:24.966Z,2.12
2023-01-29T21:55:51.802Z,2.07
2023-01-29T21:58:19.845Z,2.05
2023-01-29T22:00:48.807Z,2.06
2023-01-29T22:03:15.626Z,2.06
2023-01-29T22:05:42.217Z,2.10
2023-01-29T22:08:09.662Z,2.12
2023-01-29T22:10:36.634Z,2.11
2023-01-29T22:13:03.563Z,2.10
2023-01-29T22:15:30.074Z,2.09
2023-01-29T22:17:56.624Z,2.11
2023-01-29T22:20:30.025Z,2.12
2023-01-29T22:22:58.642Z,2.07
2023-01-29T22:25:25.185Z,2.11
2023-01-29T22:27:51.764Z,2.11
2023-01-29T22:30:19.109Z,2.08
2023-01-29T22:32:45.920Z,2.11
2023-01-29T22:35:12.448Z,2.15
2023-01-29T22:37:38.972Z,2.11
2023-01-29T22:40:06.308Z,2.15
2023-01-29T22:42:32.819Z,2.09
2023-01-29T22:44:59.303Z,2.08
2023-01-29T22:47:25.768Z,2.06
2023-01-29T22:49:52.455Z,2.08
2023-01-29T22:52:22.307Z,2.09
2023-01-29T22:54:48.893Z,2.12
2023-01-29T22:57:15.617Z,2.12
2023-01-29T22:59:42.153Z,2.12
2023-01-29T23:02:09.431Z,2.10
2023-01-29T23:04:35.983Z,2.12
2023-01-29T23:07:03.413Z,2.16
2023-01-29T23:09:29.916Z,2.12
2023-01-29T23:11:56.384Z,2.09
2023-01-29T23:14:22.917Z,2.14
2023-01-29T23:16:49.417Z,2.17
2023-01-29T23:19:15.940Z,2.18
2023-01-29T23:21:42.479Z,2.18
2023-01-29T23:24:09.641Z,2.21
2023-01-29T23:26:54.986Z,2.18
2023-01-29T23:29:21.670Z,2.26
2023-01-29T23:31:48.275Z,2.31
2023-01-29T23:34:15.202Z,2.34
2023-01-29T23:36:42.229Z,2.38
2023-01-29T23:39:09.128Z,2.39
2023-01-29T23:41:35.915Z,2.37
2023-01-29T23:44:02.505Z,2.41
2023-01-29T23:46:29.011Z,2.38
2023-01-29T23:48:55.693Z,2.43
2023-01-29T23:51:22.341Z,2.43
2023-01-29T23:53:48.867Z,2.43
2023-01-29T23:56:15.406Z,2.42
2023-01-29T23:58:41.994Z,2.46
